createdAt,value
2022-09-14T00:03:24.919Z,3.92
2022-09-14T00:08:28.778Z,3.85
2022-09-14T00:13:31.165Z,3.75
2022-09-14T00:18:35.056Z,6.20
2022-09-14T00:23:39.011Z,6.03
2022-09-14T00:28:47.011Z,4.80
2022-09-14T00:33:50.743Z,5.90
2022-09-14T00:38:55.355Z,7.15
2022-09-14T00:43:57.545Z,6.75
2022-09-14T00:49:01.924Z,6.72
2022-09-14T00:54:05.278Z,6.22
2022-09-14T00:59:16.455Z,3.85
2022-09-14T01:04:18.642Z,7.78
2022-09-14T01:09:32.428Z,8.43
2022-09-14T01:15:02.467Z,4.15
2022-09-14T01:20:16.280Z,6.72
2022-09-14T01:25:30.493Z,6.63
2022-09-14T01:30:34.701Z,6.45
2022-09-14T01:35:46.651Z,5.47
2022-09-14T01:40:51.101Z,6.32
2022-09-14T01:45:57.960Z,7.90
2022-09-14T01:51:02.837Z,6.18
2022-09-14T01:56:15.864Z,6.05
2022-09-14T02:01:25.194Z,7.03
2022-09-14T02:06:31.940Z,4.30
2022-09-14T02:11:34.144Z,6.78
2022-09-14T02:16:36.282Z,6.55
2022-09-14T02:21:38.883Z,7.25
2022-09-14T02:26:41.937Z,6.07
2022-09-14T02:31:57.901Z,6.03
2022-09-14T02:37:05.732Z,6.88
2022-09-14T02:42:45.484Z,5.63
2022-09-14T02:48:14.258Z,8.43
2022-09-14T02:53:45.141Z,8.23
2022-09-14T02:58:47.431Z,4.38
2022-09-14T03:03:49.832Z,8.18
2022-09-14T03:08:52.188Z,5.43
2022-09-14T03:13:54.279Z,6.35
2022-09-14T03:18:56.247Z,8.40
2022-09-14T03:23:58.579Z,7.32
2022-09-14T03:29:00.644Z,7.25
2022-09-14T03:34:02.805Z,6.90
2022-09-14T03:39:04.876Z,8.50
2022-09-14T03:44:07.047Z,8.15
2022-09-14T03:49:09.091Z,13.32
2022-09-14T03:54:11.185Z,10.18
2022-09-14T03:59:13.260Z,15.98
2022-09-14T04:04:16.704Z,11.27
2022-09-14T04:09:19.537Z,9.38
2022-09-14T04:14:21.605Z,13.82
2022-09-14T04:19:23.808Z,10.65
2022-09-14T04:24:30.110Z,10.93
2022-09-14T04:29:32.977Z,9.52
2022-09-14T04:34:35.888Z,11.20
2022-09-14T04:39:38.146Z,10.18
2022-09-14T04:44:40.427Z,11.90
2022-09-14T04:49:42.500Z,8.95
2022-09-14T04:54:44.500Z,13.00
2022-09-14T04:59:46.542Z,8.20
2022-09-14T05:04:48.553Z,10.57
2022-09-14T05:09:50.697Z,12.43
2022-09-14T05:14:52.777Z,11.43
2022-09-14T05:19:54.807Z,7.47
2022-09-14T05:24:56.885Z,11.10
2022-09-14T05:29:58.867Z,10.32
2022-09-14T05:35:01.091Z,7.60
2022-09-14T05:40:04.287Z,9.48
2022-09-14T05:45:06.851Z,11.43
2022-09-14T05:50:09.320Z,10.25
2022-09-14T05:55:11.389Z,6.97
2022-09-14T06:00:14.444Z,8.60
2022-09-14T06:05:17.949Z,10.73
2022-09-14T06:10:21.466Z,11.07
2022-09-14T06:15:24.864Z,8.07
2022-09-14T06:20:27.156Z,8.52
2022-09-14T06:25:29.216Z,9.38
2022-09-14T06:30:31.301Z,8.52
2022-09-14T06:35:33.378Z,12.25
2022-09-14T06:40:35.512Z,9.43
2022-09-14T06:45:37.568Z,9.25
2022-09-14T06:50:39.564Z,9.23
2022-09-14T06:55:41.623Z,7.88
2022-09-14T07:00:43.733Z,8.45
2022-09-14T07:05:45.834Z,11.02
2022-09-14T07:10:56.397Z,10.40
2022-09-14T07:15:58.616Z,7.20
2022-09-14T07:21:12.720Z,16.23
2022-09-14T07:26:23.388Z,27.20
2022-09-14T07:31:54.308Z,23.20
2022-09-14T07:36:56.391Z,17.25
2022-09-14T07:41:58.385Z,21.70
2022-09-14T07:47:00.395Z,26.05
2022-09-14T07:52:02.673Z,31.02
2022-09-14T07:57:04.718Z,29.83
2022-09-14T08:02:11.763Z,29.45
2022-09-14T08:07:14.851Z,26.83
2022-09-14T08:17:18.589Z,24.48
2022-09-14T08:22:20.615Z,30.20
2022-09-14T08:27:22.499Z,21.88
2022-09-14T08:32:24.881Z,25.70
2022-09-14T08:37:26.788Z,23.30
2022-09-14T08:42:29.004Z,23.65
2022-09-14T08:47:36.977Z,22.80
2022-09-14T08:52:43.613Z,22.73
2022-09-14T08:58:08.465Z,20.50
2022-09-14T09:03:37.820Z,18.35
2022-09-14T09:08:58.969Z,21.75
2022-09-14T09:14:08.769Z,17.85
2022-09-14T09:19:17.226Z,20.83
2022-09-14T09:24:38.049Z,19.33
2022-09-14T09:29:40.698Z,18.92
2022-09-14T09:34:46.024Z,23.98
2022-09-14T09:40:01.187Z,19.77
2022-09-14T09:45:10.611Z,16.10
2022-09-14T09:50:20.194Z,15.52
2022-09-14T09:55:26.348Z,18.20
2022-09-14T10:00:30.140Z,15.98
2022-09-14T10:05:33.364Z,13.90
2022-09-14T10:10:35.524Z,17.65
2022-09-14T10:15:37.813Z,16.02
2022-09-14T10:20:43.977Z,14.15
2022-09-14T10:25:47.115Z,17.30
2022-09-14T10:31:15.103Z,14.88
2022-09-14T10:36:39.160Z,14.98
2022-09-14T10:41:54.193Z,14.50
2022-09-14T10:52:35.811Z,13.98
2022-09-14T10:57:51.092Z,13.38
2022-09-14T11:03:16.062Z,14.85
2022-09-14T11:08:26.892Z,15.68
2022-09-14T11:13:47.627Z,23.80
2022-09-14T11:19:25.192Z,29.20
2022-09-14T11:24:34.739Z,16.75
2022-09-14T11:29:54.788Z,16.52
2022-09-14T11:35:22.585Z,13.63
2022-09-14T11:40:37.578Z,17.40
2022-09-14T11:45:48.522Z,18.48
2022-09-14T11:51:06.291Z,12.73
2022-09-14T11:56:26.956Z,15.38
2022-09-14T12:01:31.356Z,13.13
2022-09-14T12:06:36.356Z,13.68
2022-09-14T12:11:38.780Z,14.50
2022-09-14T12:17:22.821Z,12.27
2022-09-14T12:22:31.803Z,13.65
2022-09-14T12:27:37.813Z,14.90
2022-09-14T12:32:43.279Z,15.02
2022-09-14T12:37:45.820Z,13.38
2022-09-14T12:42:48.272Z,11.27
2022-09-14T12:47:52.008Z,13.65
2022-09-14T12:53:00.946Z,11.90
2022-09-14T12:58:31.003Z,16.23
2022-09-14T13:03:59.008Z,18.25
2022-09-14T13:09:06.250Z,11.57
2022-09-14T13:14:19.376Z,15.07
2022-09-14T13:19:30.664Z,13.90
2022-09-14T13:24:42.983Z,13.45
2022-09-14T13:29:45.043Z,14.00
2022-09-14T13:34:47.725Z,11.57
2022-09-14T13:39:53.060Z,13.07
2022-09-14T13:44:55.508Z,9.38
2022-09-14T13:49:58.436Z,11.20
2022-09-14T13:55:17.943Z,12.75
2022-09-14T14:00:21.797Z,11.65
2022-09-14T14:05:29.784Z,11.20
2022-09-14T14:10:39.079Z,10.75
2022-09-14T14:15:43.079Z,11.00
2022-09-14T14:20:45.185Z,8.77
2022-09-14T14:25:54.711Z,10.90
2022-09-14T14:30:59.439Z,8.13
2022-09-14T14:36:08.497Z,10.60
2022-09-14T14:41:19.468Z,10.48
2022-09-14T14:46:21.616Z,11.55
2022-09-14T14:51:23.779Z,10.70
2022-09-14T14:56:26.171Z,10.02
2022-09-14T15:01:28.798Z,11.05
2022-09-14T15:06:30.834Z,8.10
2022-09-14T15:11:32.863Z,11.95
2022-09-14T15:16:35.274Z,9.18
2022-09-14T15:21:41.739Z,11.05
2022-09-14T15:26:43.809Z,11.40
2022-09-14T15:31:46.262Z,9.25
2022-09-14T15:36:53.330Z,12.45
2022-09-14T15:41:56.288Z,11.85
2022-09-14T15:46:58.245Z,13.18
2022-09-14T15:52:00.536Z,12.45
2022-09-14T15:57:03.780Z,14.20
2022-09-14T16:02:06.296Z,11.45
2022-09-14T16:07:10.126Z,11.45
2022-09-14T16:12:13.840Z,20.95
2022-09-14T16:17:15.943Z,15.35
2022-09-14T16:22:17.957Z,14.93
2022-09-14T16:27:20.015Z,16.63
2022-09-14T16:32:22.428Z,15.82
2022-09-14T16:37:24.704Z,16.23
2022-09-14T16:42:27.413Z,19.38
2022-09-14T16:47:33.266Z,18.73
2022-09-14T16:52:35.737Z,15.75
2022-09-14T16:57:37.692Z,15.70
2022-09-14T17:02:39.861Z,15.65
2022-09-14T17:07:42.240Z,18.13
2022-09-14T17:12:46.938Z,14.60
2022-09-14T17:17:49.019Z,15.93
2022-09-14T17:22:51.071Z,13.88
2022-09-14T17:27:53.275Z,16.10
2022-09-14T17:32:55.265Z,12.75
2022-09-14T17:37:57.289Z,15.38
2022-09-14T17:42:59.380Z,13.85
2022-09-14T17:48:01.593Z,16.88
2022-09-14T17:53:03.576Z,11.00
2022-09-14T17:58:05.672Z,9.82
2022-09-14T18:03:09.477Z,12.15
2022-09-14T18:08:11.603Z,10.00
2022-09-14T18:13:13.584Z,11.80
2022-09-14T18:18:15.628Z,12.60
2022-09-14T18:23:18.406Z,9.48
2022-09-14T18:28:21.647Z,11.20
2022-09-14T18:33:23.737Z,10.75
2022-09-14T18:38:25.841Z,13.43
2022-09-14T18:43:27.796Z,10.23
2022-09-14T18:48:29.876Z,8.93
2022-09-14T18:53:32.568Z,8.80
2022-09-14T18:58:36.228Z,12.32
2022-09-14T19:03:40.445Z,9.90
2022-09-14T19:08:43.377Z,9.98
2022-09-14T19:13:46.728Z,13.13
2022-09-14T19:18:49.770Z,9.23
2022-09-14T19:29:04.335Z,8.68
2022-09-14T19:34:07.104Z,9.63
2022-09-14T19:39:09.420Z,9.48
2022-09-14T19:44:12.384Z,11.20
2022-09-14T19:49:17.192Z,9.25
2022-09-14T19:54:19.659Z,8.57
2022-09-14T19:59:21.693Z,8.43
2022-09-14T20:04:23.979Z,12.90
2022-09-14T20:09:26.113Z,12.80
2022-09-14T20:14:28.164Z,6.32
2022-09-14T20:19:32.825Z,7.18
2022-09-14T20:24:35.994Z,9.50
2022-09-14T20:29:38.108Z,10.43
2022-09-14T20:34:40.274Z,11.05
2022-09-14T20:39:42.341Z,8.90
2022-09-14T20:44:44.502Z,12.23
2022-09-14T20:49:46.583Z,7.78
2022-09-14T20:54:48.600Z,8.30
2022-09-14T20:59:50.828Z,9.77
2022-09-14T21:04:52.915Z,7.00
2022-09-14T21:09:54.972Z,14.32
2022-09-14T21:14:56.979Z,13.93
2022-09-14T21:19:59.168Z,13.48
2022-09-14T21:25:01.232Z,10.52
2022-09-14T21:30:03.366Z,14.75
2022-09-14T21:35:05.979Z,12.10
2022-09-14T21:40:09.075Z,11.85
2022-09-14T21:45:12.446Z,12.38
2022-09-14T21:50:14.400Z,9.68
2022-09-14T21:55:16.472Z,10.05
2022-09-14T22:00:19.486Z,13.27
2022-09-14T22:05:21.685Z,12.27
2022-09-14T22:10:23.756Z,11.55
2022-09-14T22:15:32.065Z,9.65
2022-09-14T22:20:34.516Z,9.80
2022-09-14T22:25:40.499Z,12.30
2022-09-14T22:30:54.629Z,11.57
2022-09-14T22:35:59.043Z,7.93
2022-09-14T22:41:04.315Z,11.85
2022-09-14T22:46:07.795Z,10.45
2022-09-14T22:51:16.206Z,10.68
2022-09-14T22:56:27.107Z,10.13
2022-09-14T23:01:38.594Z,12.32
2022-09-14T23:06:43.954Z,8.32
2022-09-14T23:11:46.819Z,7.50
2022-09-14T23:16:49.087Z,9.05
2022-09-14T23:21:51.653Z,9.85
2022-09-14T23:33:34.805Z,9.07
2022-09-14T23:38:36.890Z,7.00
2022-09-14T23:43:39.006Z,7.57
2022-09-14T23:48:41.149Z,9.00
2022-09-14T23:53:43.472Z,10.02
2022-09-14T23:58:45.760Z,8.40
